N482VX KLAX-KAHC
Flight info
| Callsign | N482VX |
|---|---|
| Flight time | 1h 0m |
| Altitude | 43000 |
| Route | GMN7 EHF J5 PYRAM |
| Aircraft | C700/M-SBDGHM1RWXY/LB2 |
Departure
| Time | 2026-04-23 13:47 |
|---|---|
| Airport | Los Angeles International Airport (KLAX) |
Arrival
| Time | 2026-04-23 14:47 |
|---|---|
| Airport | Amedee Army Air Field (KAHC) |
| Time | Latitude | Longitude | Altitude | Speed | Heading |
|---|---|---|---|---|---|
| 2026-04-23 13:31 | 33.93393 | -118.39569 | 102 ft | 0 kts | 225° |
| 2026-04-23 13:39 | 33.93393 | -118.39571 | 102 ft | 0 kts | 242° |
| 2026-04-23 13:39 | 33.93394 | -118.39573 | 102 ft | 0 kts | 275° |
| 2026-04-23 13:40 | 33.93396 | -118.39575 | 102 ft | 0 kts | 310° |
| 2026-04-23 13:40 | 33.93398 | -118.39575 | 102 ft | 2 kts | 330° |
| 2026-04-23 13:40 | 33.93420 | -118.39554 | 102 ft | 7 kts | 76° |
| 2026-04-23 13:40 | 33.93429 | -118.39471 | 102 ft | 12 kts | 82° |
| 2026-04-23 13:41 | 33.93456 | -118.39389 | 102 ft | 4 kts | 20° |
| 2026-04-23 13:41 | 33.93491 | -118.39387 | 103 ft | 5 kts | 19° |
| 2026-04-23 13:41 | 33.93504 | -118.39351 | 103 ft | 7 kts | 77° |
| 2026-04-23 13:41 | 33.93506 | -118.39314 | 102 ft | 4 kts | 80° |
| 2026-04-23 13:42 | 33.93514 | -118.39259 | 102 ft | 9 kts | 79° |
| 2026-04-23 13:42 | 33.93524 | -118.39165 | 102 ft | 13 kts | 87° |
| 2026-04-23 13:42 | 33.93531 | -118.39086 | 102 ft | 15 kts | 82° |
| 2026-04-23 13:42 | 33.93548 | -118.38913 | 102 ft | 14 kts | 81° |
| 2026-04-23 13:43 | 33.93561 | -118.38782 | 102 ft | 18 kts | 83° |
| 2026-04-23 13:43 | 33.93572 | -118.38680 | 102 ft | 15 kts | 83° |
| 2026-04-23 13:43 | 33.93584 | -118.38557 | 102 ft | 11 kts | 83° |
| 2026-04-23 13:43 | 33.93596 | -118.38452 | 102 ft | 14 kts | 83° |
| 2026-04-23 13:44 | 33.93606 | -118.38343 | 102 ft | 6 kts | 82° |
| 2026-04-23 13:44 | 33.93617 | -118.38299 | 102 ft | 0 kts | 50° |
| 2026-04-23 13:44 | 33.93618 | -118.38298 | 102 ft | 0 kts | 39° |
| 2026-04-23 13:45 | 33.93643 | -118.38280 | 102 ft | 7 kts | 22° |
| 2026-04-23 13:45 | 33.93682 | -118.38280 | 103 ft | 7 kts | 354° |
| 2026-04-23 13:45 | 33.93726 | -118.38309 | 104 ft | 8 kts | 288° |
| 2026-04-23 13:46 | 33.93727 | -118.38388 | 104 ft | 15 kts | 264° |
| 2026-04-23 13:46 | 33.93681 | -118.38840 | 103 ft | 93 kts | 262° |
| 2026-04-23 13:46 | 33.93562 | -118.39897 | 122 ft | 158 kts | 262° |
| 2026-04-23 13:46 | 33.93396 | -118.41353 | 542 ft | 192 kts | 262° |
| 2026-04-23 13:47 | 33.93200 | -118.43064 | 1296 ft | 218 kts | 262° |
| 2026-04-23 13:47 | 33.92986 | -118.44927 | 2219 ft | 236 kts | 263° |
| 2026-04-23 13:47 | 33.92762 | -118.46902 | 3472 ft | 237 kts | 264° |
| 2026-04-23 13:47 | 33.92531 | -118.48972 | 4462 ft | 260 kts | 265° |
| 2026-04-23 13:48 | 33.92292 | -118.51148 | 5808 ft | 264 kts | 265° |
| 2026-04-23 13:48 | 33.92050 | -118.53360 | 7149 ft | 268 kts | 265° |
| 2026-04-23 13:48 | 33.92105 | -118.55569 | 8513 ft | 264 kts | 290° |
| 2026-04-23 13:48 | 33.93179 | -118.57310 | 9879 ft | 266 kts | 323° |
| 2026-04-23 13:49 | 33.94957 | -118.58113 | 10807 ft | 291 kts | 349° |
| 2026-04-23 13:49 | 33.97056 | -118.57783 | 11714 ft | 316 kts | 12° |
| 2026-04-23 13:49 | 33.99160 | -118.56911 | 12928 ft | 324 kts | 13° |
| 2026-04-23 13:49 | 34.01276 | -118.56079 | 14459 ft | 308 kts | 8° |
| 2026-04-23 13:50 | 34.03366 | -118.55445 | 15618 ft | 314 kts | 6° |
| 2026-04-23 13:50 | 34.05521 | -118.54801 | 16597 ft | 323 kts | 8° |
| 2026-04-23 13:50 | 34.07708 | -118.54056 | 17598 ft | 330 kts | 8° |
| 2026-04-23 13:50 | 34.09930 | -118.53291 | 18573 ft | 336 kts | 8° |
| 2026-04-23 13:51 | 34.12189 | -118.52822 | 19367 ft | 329 kts | 351° |
| 2026-04-23 13:51 | 34.14359 | -118.53430 | 20218 ft | 317 kts | 329° |
| 2026-04-23 13:51 | 34.16323 | -118.54632 | 21048 ft | 318 kts | 324° |
| 2026-04-23 13:51 | 34.18332 | -118.55906 | 21463 ft | 339 kts | 327° |
| 2026-04-23 13:52 | 34.20592 | -118.57044 | 21913 ft | 358 kts | 333° |
| 2026-04-23 13:52 | 34.22951 | -118.58043 | 22785 ft | 361 kts | 333° |
| 2026-04-23 13:52 | 34.25298 | -118.59164 | 23578 ft | 364 kts | 330° |
| 2026-04-23 13:52 | 34.27643 | -118.60368 | 24276 ft | 369 kts | 330° |
| 2026-04-23 13:53 | 34.30038 | -118.61543 | 24971 ft | 374 kts | 331° |
| 2026-04-23 13:53 | 34.32480 | -118.62700 | 25659 ft | 379 kts | 331° |
| 2026-04-23 13:53 | 34.34939 | -118.63886 | 26338 ft | 383 kts | 330° |
| 2026-04-23 13:53 | 34.37422 | -118.65106 | 27020 ft | 387 kts | 330° |
| 2026-04-23 13:54 | 34.39932 | -118.66336 | 27674 ft | 391 kts | 331° |
| 2026-04-23 13:54 | 34.42472 | -118.67566 | 28333 ft | 395 kts | 331° |
| 2026-04-23 13:54 | 34.45043 | -118.68815 | 28986 ft | 399 kts | 331° |
| 2026-04-23 13:54 | 34.47628 | -118.70079 | 29637 ft | 403 kts | 331° |
| 2026-04-23 13:55 | 34.50243 | -118.71358 | 30256 ft | 408 kts | 331° |
| 2026-04-23 13:55 | 34.52884 | -118.72645 | 30830 ft | 411 kts | 331° |
| 2026-04-23 13:55 | 34.55509 | -118.73925 | 31369 ft | 414 kts | 331° |
| 2026-04-23 13:55 | 34.58192 | -118.75239 | 31894 ft | 417 kts | 330° |
| 2026-04-23 13:56 | 34.60889 | -118.76562 | 32424 ft | 420 kts | 330° |
| 2026-04-23 13:56 | 34.63607 | -118.77890 | 32935 ft | 423 kts | 330° |
| 2026-04-23 13:56 | 34.66346 | -118.79232 | 33389 ft | 426 kts | 330° |
| 2026-04-23 13:56 | 34.69104 | -118.80586 | 33872 ft | 429 kts | 331° |
| 2026-04-23 13:57 | 34.71886 | -118.81951 | 34304 ft | 432 kts | 331° |
| 2026-04-23 13:57 | 34.74679 | -118.83321 | 34696 ft | 435 kts | 330° |
| 2026-04-23 13:57 | 34.77494 | -118.84706 | 35074 ft | 437 kts | 330° |
| 2026-04-23 13:57 | 34.80330 | -118.86071 | 35448 ft | 442 kts | 333° |
| 2026-04-23 13:58 | 34.83321 | -118.87131 | 35801 ft | 449 kts | 337° |
| 2026-04-23 13:58 | 34.86344 | -118.88158 | 36082 ft | 451 kts | 336° |
| 2026-04-23 13:58 | 34.89367 | -118.89225 | 36439 ft | 453 kts | 335° |
| 2026-04-23 13:58 | 34.92406 | -118.90283 | 36733 ft | 456 kts | 336° |
| 2026-04-23 13:59 | 34.95479 | -118.91328 | 37013 ft | 458 kts | 336° |
| 2026-04-23 13:59 | 34.98554 | -118.92381 | 37279 ft | 460 kts | 335° |
| 2026-04-23 13:59 | 35.01641 | -118.93455 | 37531 ft | 462 kts | 335° |
| 2026-04-23 13:59 | 35.04743 | -118.94533 | 37771 ft | 464 kts | 335° |
| 2026-04-23 14:00 | 35.06803 | -118.95243 | 37931 ft | 466 kts | 336° |
| 2026-04-23 14:00 | 35.10934 | -118.96667 | 38355 ft | 465 kts | 335° |
| 2026-04-23 14:00 | 35.14041 | -118.97744 | 38677 ft | 464 kts | 335° |
| 2026-04-23 14:00 | 35.17149 | -118.98825 | 38936 ft | 463 kts | 335° |
| 2026-04-23 14:01 | 35.20248 | -118.99901 | 39132 ft | 463 kts | 336° |
| 2026-04-23 14:01 | 35.23349 | -119.00976 | 39331 ft | 463 kts | 336° |
| 2026-04-23 14:01 | 35.26446 | -119.02052 | 39522 ft | 463 kts | 336° |
| 2026-04-23 14:01 | 35.29556 | -119.03135 | 39725 ft | 463 kts | 336° |
| 2026-04-23 14:02 | 35.32650 | -119.04213 | 39912 ft | 463 kts | 336° |
| 2026-04-23 14:02 | 35.35754 | -119.05294 | 40091 ft | 463 kts | 336° |
| 2026-04-23 14:02 | 35.38855 | -119.06375 | 40270 ft | 463 kts | 336° |
| 2026-04-23 14:02 | 35.41953 | -119.07456 | 40446 ft | 463 kts | 336° |
| 2026-04-23 14:03 | 35.45054 | -119.08540 | 40620 ft | 463 kts | 336° |
| 2026-04-23 14:03 | 35.48137 | -119.09542 | 40784 ft | 467 kts | 341° |
| 2026-04-23 14:03 | 35.51383 | -119.10120 | 40968 ft | 474 kts | 346° |
| 2026-04-23 14:03 | 35.54671 | -119.10534 | 41130 ft | 474 kts | 346° |
| 2026-04-23 14:04 | 35.57948 | -119.10968 | 41288 ft | 473 kts | 346° |
| 2026-04-23 14:04 | 35.61223 | -119.11407 | 41453 ft | 473 kts | 346° |
| 2026-04-23 14:04 | 35.64503 | -119.11836 | 41614 ft | 474 kts | 346° |
| 2026-04-23 14:04 | 35.67779 | -119.12261 | 41777 ft | 473 kts | 346° |
| 2026-04-23 14:05 | 35.71058 | -119.12693 | 41912 ft | 473 kts | 346° |
| 2026-04-23 14:05 | 35.74338 | -119.13128 | 42058 ft | 474 kts | 346° |
| 2026-04-23 14:05 | 35.77608 | -119.13559 | 42198 ft | 474 kts | 346° |
| 2026-04-23 14:05 | 35.80888 | -119.13989 | 42318 ft | 474 kts | 346° |
| 2026-04-23 14:06 | 35.84171 | -119.14423 | 42447 ft | 474 kts | 346° |
| 2026-04-23 14:06 | 35.87449 | -119.14857 | 42574 ft | 474 kts | 346° |
| 2026-04-23 14:06 | 35.90732 | -119.15291 | 42695 ft | 474 kts | 346° |
| 2026-04-23 14:06 | 35.93970 | -119.15719 | 42810 ft | 474 kts | 346° |
| 2026-04-23 14:07 | 35.97254 | -119.16153 | 42940 ft | 474 kts | 346° |
| 2026-04-23 14:07 | 36.03823 | -119.17024 | 43179 ft | 474 kts | 346° |
| 2026-04-23 14:07 | 36.07114 | -119.17462 | 43200 ft | 476 kts | 346° |
| 2026-04-23 14:08 | 36.13721 | -119.18339 | 43200 ft | 477 kts | 346° |
| 2026-04-23 14:08 | 36.20299 | -119.19214 | 43194 ft | 474 kts | 346° |
| 2026-04-23 14:09 | 36.26827 | -119.20085 | 43198 ft | 471 kts | 346° |
| 2026-04-23 14:09 | 36.33310 | -119.21187 | 43198 ft | 469 kts | 343° |
| 2026-04-23 14:10 | 36.39851 | -119.22150 | 43198 ft | 477 kts | 348° |
| 2026-04-23 14:10 | 36.46405 | -119.22940 | 43187 ft | 475 kts | 345° |
| 2026-04-23 14:11 | 36.52930 | -119.23869 | 43180 ft | 468 kts | 347° |
| 2026-04-23 14:11 | 36.59373 | -119.24692 | 43158 ft | 463 kts | 346° |
| 2026-04-23 14:12 | 36.65829 | -119.25584 | 43150 ft | 469 kts | 346° |
| 2026-04-23 14:12 | 36.72347 | -119.26440 | 43147 ft | 470 kts | 346° |
| 2026-04-23 14:13 | 36.78784 | -119.27314 | 43143 ft | 466 kts | 346° |
| 2026-04-23 14:13 | 36.85221 | -119.28175 | 43136 ft | 464 kts | 346° |
| 2026-04-23 14:14 | 36.91658 | -119.29048 | 43128 ft | 466 kts | 346° |
| 2026-04-23 14:14 | 36.98139 | -119.29920 | 43122 ft | 469 kts | 346° |
| 2026-04-23 14:15 | 37.04627 | -119.30798 | 43122 ft | 468 kts | 346° |
| 2026-04-23 14:15 | 37.11090 | -119.31673 | 43116 ft | 465 kts | 346° |
| 2026-04-23 14:16 | 37.17515 | -119.32547 | 43116 ft | 464 kts | 346° |
| 2026-04-23 14:16 | 37.23954 | -119.33422 | 43111 ft | 466 kts | 346° |
| 2026-04-23 14:17 | 37.30413 | -119.34300 | 43118 ft | 468 kts | 346° |
| 2026-04-23 14:17 | 37.36850 | -119.35180 | 43121 ft | 469 kts | 346° |
| 2026-04-23 14:18 | 37.43346 | -119.36066 | 43119 ft | 469 kts | 347° |
| 2026-04-23 14:18 | 37.49820 | -119.36952 | 43120 ft | 466 kts | 347° |
| 2026-04-23 14:19 | 37.56260 | -119.37835 | 43123 ft | 464 kts | 346° |
| 2026-04-23 14:19 | 37.62664 | -119.38716 | 43120 ft | 464 kts | 346° |
| 2026-04-23 14:20 | 37.69088 | -119.39603 | 43133 ft | 465 kts | 347° |
| 2026-04-23 14:20 | 37.75543 | -119.40488 | 43132 ft | 466 kts | 347° |
| 2026-04-23 14:21 | 37.81995 | -119.41383 | 43136 ft | 467 kts | 347° |
| 2026-04-23 14:21 | 37.88451 | -119.42272 | 43149 ft | 467 kts | 347° |
| 2026-04-23 14:22 | 37.94874 | -119.43165 | 43159 ft | 468 kts | 347° |
| 2026-04-23 14:22 | 38.01351 | -119.44064 | 43172 ft | 467 kts | 347° |
| 2026-04-23 14:23 | 38.07803 | -119.44959 | 43176 ft | 465 kts | 347° |
| 2026-04-23 14:23 | 38.14230 | -119.45856 | 43189 ft | 464 kts | 347° |
| 2026-04-23 14:24 | 38.20652 | -119.46753 | 43205 ft | 465 kts | 347° |
| 2026-04-23 14:24 | 38.27085 | -119.47653 | 43224 ft | 465 kts | 347° |
| 2026-04-23 14:25 | 38.33525 | -119.48554 | 43225 ft | 466 kts | 347° |
| 2026-04-23 14:25 | 38.39984 | -119.49461 | 43227 ft | 468 kts | 347° |
| 2026-04-23 14:26 | 38.46470 | -119.50373 | 43236 ft | 469 kts | 347° |
| 2026-04-23 14:26 | 38.51354 | -119.51059 | 43235 ft | 471 kts | 347° |
| 2026-04-23 14:27 | 38.57867 | -119.51978 | 43241 ft | 470 kts | 347° |
| 2026-04-23 14:27 | 38.64355 | -119.52894 | 43239 ft | 468 kts | 348° |
| 2026-04-23 14:28 | 38.70827 | -119.53811 | 43237 ft | 467 kts | 348° |
| 2026-04-23 14:28 | 38.77251 | -119.54722 | 42959 ft | 472 kts | 348° |
| 2026-04-23 14:29 | 38.80557 | -119.55197 | 42203 ft | 480 kts | 348° |
| 2026-04-23 14:29 | 38.83875 | -119.55663 | 41436 ft | 478 kts | 348° |
| 2026-04-23 14:29 | 38.87125 | -119.56114 | 40682 ft | 464 kts | 347° |
| 2026-04-23 14:29 | 38.90328 | -119.56575 | 39948 ft | 463 kts | 347° |
| 2026-04-23 14:30 | 38.93532 | -119.57043 | 39182 ft | 463 kts | 347° |
| 2026-04-23 14:30 | 38.96742 | -119.57500 | 38103 ft | 465 kts | 347° |
| 2026-04-23 14:30 | 38.99940 | -119.57946 | 37674 ft | 452 kts | 347° |
| 2026-04-23 14:30 | 39.03051 | -119.58384 | 36951 ft | 449 kts | 347° |
| 2026-04-23 14:31 | 39.05094 | -119.58686 | 36481 ft | 449 kts | 347° |
| 2026-04-23 14:31 | 39.08198 | -119.59140 | 35755 ft | 448 kts | 347° |
| 2026-04-23 14:31 | 39.11293 | -119.59577 | 35054 ft | 445 kts | 347° |
| 2026-04-23 14:31 | 39.14346 | -119.60007 | 34348 ft | 438 kts | 347° |
| 2026-04-23 14:32 | 39.17350 | -119.60439 | 33615 ft | 430 kts | 348° |
| 2026-04-23 14:32 | 39.20323 | -119.60871 | 32927 ft | 421 kts | 348° |
| 2026-04-23 14:32 | 39.23182 | -119.61283 | 32263 ft | 414 kts | 349° |
| 2026-04-23 14:32 | 39.26027 | -119.61690 | 31601 ft | 408 kts | 350° |
| 2026-04-23 14:33 | 39.28838 | -119.62096 | 30953 ft | 405 kts | 351° |
| 2026-04-23 14:33 | 39.31635 | -119.62502 | 30294 ft | 404 kts | 352° |
| 2026-04-23 14:33 | 39.34329 | -119.62888 | 29630 ft | 401 kts | 352° |
| 2026-04-23 14:33 | 39.37091 | -119.63285 | 28973 ft | 397 kts | 352° |
| 2026-04-23 14:34 | 39.39800 | -119.63677 | 28349 ft | 394 kts | 353° |
| 2026-04-23 14:34 | 39.42514 | -119.64071 | 27724 ft | 391 kts | 353° |
| 2026-04-23 14:34 | 39.45209 | -119.64460 | 27101 ft | 389 kts | 353° |
| 2026-04-23 14:34 | 39.47888 | -119.64847 | 26484 ft | 386 kts | 353° |
| 2026-04-23 14:35 | 39.50543 | -119.65232 | 25865 ft | 382 kts | 353° |
| 2026-04-23 14:35 | 39.53174 | -119.65630 | 25260 ft | 378 kts | 351° |
| 2026-04-23 14:35 | 39.55733 | -119.66326 | 24657 ft | 374 kts | 347° |
| 2026-04-23 14:35 | 39.58262 | -119.67038 | 24061 ft | 371 kts | 348° |
| 2026-04-23 14:36 | 39.60776 | -119.67710 | 23432 ft | 367 kts | 348° |
| 2026-04-23 14:36 | 39.63258 | -119.68383 | 22828 ft | 361 kts | 348° |
| 2026-04-23 14:36 | 39.65696 | -119.69063 | 22261 ft | 356 kts | 348° |
| 2026-04-23 14:36 | 39.68110 | -119.69732 | 21692 ft | 353 kts | 348° |
| 2026-04-23 14:37 | 39.70507 | -119.70390 | 21130 ft | 351 kts | 348° |
| 2026-04-23 14:37 | 39.72885 | -119.71046 | 20575 ft | 348 kts | 348° |
| 2026-04-23 14:37 | 39.75252 | -119.71699 | 20011 ft | 347 kts | 348° |
| 2026-04-23 14:37 | 39.77599 | -119.72349 | 19457 ft | 344 kts | 348° |
| 2026-04-23 14:38 | 39.79929 | -119.72993 | 18904 ft | 340 kts | 349° |
| 2026-04-23 14:38 | 39.82205 | -119.73623 | 18346 ft | 336 kts | 349° |
| 2026-04-23 14:38 | 39.84483 | -119.74255 | 17620 ft | 335 kts | 349° |
| 2026-04-23 14:38 | 39.86746 | -119.74880 | 17034 ft | 329 kts | 350° |
| 2026-04-23 14:39 | 39.88966 | -119.75469 | 16508 ft | 323 kts | 350° |
| 2026-04-23 14:39 | 39.91159 | -119.76069 | 15984 ft | 321 kts | 350° |
| 2026-04-23 14:39 | 39.93342 | -119.76691 | 15469 ft | 321 kts | 350° |
| 2026-04-23 14:39 | 39.95527 | -119.77300 | 14956 ft | 320 kts | 350° |
| 2026-04-23 14:40 | 39.97706 | -119.77902 | 14440 ft | 320 kts | 350° |
| 2026-04-23 14:40 | 39.99880 | -119.78506 | 13921 ft | 318 kts | 350° |
| 2026-04-23 14:40 | 40.02031 | -119.79105 | 13390 ft | 314 kts | 350° |
| 2026-04-23 14:40 | 40.04158 | -119.79699 | 12885 ft | 311 kts | 349° |
| 2026-04-23 14:41 | 40.06266 | -119.80286 | 12392 ft | 309 kts | 349° |
| 2026-04-23 14:41 | 40.08369 | -119.80873 | 11897 ft | 309 kts | 349° |
| 2026-04-23 14:41 | 40.10446 | -119.81451 | 11408 ft | 309 kts | 349° |
| 2026-04-23 14:41 | 40.12546 | -119.82015 | 10992 ft | 305 kts | 352° |
| 2026-04-23 14:42 | 40.14611 | -119.82247 | 10963 ft | 295 kts | 356° |
| 2026-04-23 14:42 | 40.16671 | -119.82540 | 10288 ft | 299 kts | 348° |
| 2026-04-23 14:42 | 40.18516 | -119.83282 | 9276 ft | 271 kts | 337° |
| 2026-04-23 14:42 | 40.20077 | -119.84489 | 8938 ft | 248 kts | 327° |
| 2026-04-23 14:43 | 40.21398 | -119.85946 | 8663 ft | 244 kts | 315° |
| 2026-04-23 14:43 | 40.22429 | -119.87619 | 8124 ft | 230 kts | 305° |
| 2026-04-23 14:43 | 40.23172 | -119.89402 | 7736 ft | 216 kts | 296° |
| 2026-04-23 14:43 | 40.23657 | -119.91232 | 7482 ft | 212 kts | 286° |
| 2026-04-23 14:44 | 40.23929 | -119.93165 | 7273 ft | 219 kts | 280° |
| 2026-04-23 14:44 | 40.24162 | -119.95155 | 6953 ft | 222 kts | 281° |
| 2026-04-23 14:44 | 40.24415 | -119.97131 | 6590 ft | 218 kts | 281° |
| 2026-04-23 14:44 | 40.24651 | -119.99060 | 6336 ft | 214 kts | 281° |
| 2026-04-23 14:45 | 40.24891 | -120.01006 | 6056 ft | 217 kts | 281° |
| 2026-04-23 14:45 | 40.25128 | -120.02943 | 5756 ft | 215 kts | 281° |
| 2026-04-23 14:45 | 40.25363 | -120.04865 | 5458 ft | 211 kts | 280° |
| 2026-04-23 14:45 | 40.25582 | -120.06669 | 5128 ft | 187 kts | 280° |
| 2026-04-23 14:46 | 40.25774 | -120.08175 | 4889 ft | 151 kts | 282° |
| 2026-04-23 14:46 | 40.25950 | -120.09517 | 4637 ft | 154 kts | 281° |
| 2026-04-23 14:46 | 40.26104 | -120.10889 | 4423 ft | 150 kts | 280° |
| 2026-04-23 14:46 | 40.26251 | -120.12199 | 4229 ft | 137 kts | 281° |
| 2026-04-23 14:47 | 40.26387 | -120.13376 | 4056 ft | 122 kts | 282° |
| 2026-04-23 14:47 | 40.26495 | -120.14326 | 4031 ft | 84 kts | 281° |
| 2026-04-23 14:47 | 40.26572 | -120.14920 | 4040 ft | 53 kts | 278° |
| 2026-04-23 14:47 | 40.26624 | -120.15329 | 4040 ft | 43 kts | 278° |
| 2026-04-23 14:48 | 40.26660 | -120.15555 | 4041 ft | 15 kts | 300° |
| 2026-04-23 14:48 | 40.26656 | -120.15588 | 4044 ft | 3 kts | 127° |
| 2026-04-23 14:48 | 40.26649 | -120.15535 | 4044 ft | 10 kts | 101° |
| 2026-04-23 14:48 | 40.26629 | -120.15374 | 4044 ft | 25 kts | 99° |
| 2026-04-23 14:49 | 40.26597 | -120.15118 | 4037 ft | 32 kts | 98° |
| 2026-04-23 14:49 | 40.26558 | -120.14799 | 4039 ft | 39 kts | 99° |
| 2026-04-23 14:49 | 40.26521 | -120.14491 | 4036 ft | 30 kts | 98° |
| 2026-04-23 14:49 | 40.26490 | -120.14235 | 4036 ft | 25 kts | 97° |
| 2026-04-23 14:50 | 40.26474 | -120.14040 | 4038 ft | 17 kts | 74° |
| 2026-04-23 14:50 | 40.26548 | -120.13998 | 4034 ft | 7 kts | 13° |
| 2026-04-23 14:50 | 40.26570 | -120.13931 | 4041 ft | 12 kts | 90° |
| 2026-04-23 14:50 | 40.26570 | -120.13922 | 4041 ft | 0 kts | 90° |